Time;durP1;ratioP1;P1;durP2;ratioP2;P2;SDS_P1;SDS_P2;PMS_P1;PMS_P2;Temp;Humidity;BMP_temperature;BMP_pressure;BME280_temperature;BME280_humidity;BME280_pressure;Samples;Min_cycle;Max_cycle;Signal;HPM_P1;HPM_P2
2021/11/14 00:01:34;;;;;;;23.60;14.27;;;;;;;6.98;44.72;94201.31;5014930;28;20045;-76
2021/11/14 00:04:01;;;;;;;29.98;15.75;;;;;;;6.86;44.77;94177.91;5021122;28;20036;-74
2021/11/14 00:06:31;;;;;;;27.73;15.70;;;;;;;6.86;44.68;94183.19;5019175;28;20550;-76
2021/11/14 00:08:57;;;;;;;24.48;15.75;;;;;;;6.81;44.67;94180.59;4998485;28;20033;-76
2021/11/14 00:11:23;;;;;;;24.85;15.10;;;;;;;6.83;44.58;94183.75;5017572;28;20109;-76
2021/11/14 00:13:51;;;;;;;22.02;14.38;;;;;;;6.71;44.78;94174.59;5009567;28;20504;-76
2021/11/14 00:16:19;;;;;;;24.40;14.20;;;;;;;6.73;44.61;94189.13;5015908;28;20109;-76
2021/11/14 00:18:45;;;;;;;26.58;14.77;;;;;;;6.65;44.71;94170.47;5019958;28;20072;-73
2021/11/14 00:21:12;;;;;;;23.20;13.50;;;;;;;6.74;44.94;94200.50;5018307;28;20105;-77
2021/11/14 00:23:38;;;;;;;20.83;13.75;;;;;;;6.66;44.85;94188.66;5010989;28;20524;-76
2021/11/14 00:26:06;;;;;;;28.00;15.40;;;;;;;6.68;44.99;94198.97;5014002;28;20464;-77
2021/11/14 00:28:32;;;;;;;23.70;15.23;;;;;;;6.48;45.03;94167.44;5017465;28;20042;-77
2021/11/14 00:31:01;;;;;;;28.52;14.73;;;;;;;6.66;44.81;94206.38;5013737;28;20348;-74
2021/11/14 00:33:26;;;;;;;28.13;14.93;;;;;;;6.58;45.02;94193.78;5021803;28;20041;-75
2021/11/14 00:35:52;;;;;;;28.67;14.48;;;;;;;6.64;44.92;94209.31;5013878;28;20045;-77
2021/11/14 00:38:22;;;;;;;25.83;14.00;;;;;;;6.75;44.91;94212.66;5022048;28;20067;-78
2021/11/14 00:40:48;;;;;;;26.52;13.93;;;;;;;6.65;44.93;94208.22;5007014;28;20084;-77
2021/11/14 00:43:14;;;;;;;33.40;16.58;;;;;;;6.52;45.22;94206.25;5006632;28;20029;-76
2021/11/14 00:45:44;;;;;;;26.00;15.57;;;;;;;6.60;45.03;94210.94;5021241;28;20525;-77
2021/11/14 00:48:10;;;;;;;28.80;17.40;;;;;;;6.61;45.08;94207.22;5007228;28;20120;-76
2021/11/14 00:50:38;;;;;;;25.92;14.77;;;;;;;6.54;45.30;94206.75;5013653;28;20045;-75
2021/11/14 00:53:05;;;;;;;32.28;15.95;;;;;;;6.36;45.35;94194.25;5020917;28;20576;-76
2021/11/14 00:55:31;;;;;;;28.00;17.67;;;;;;;6.55;45.09;94197.78;5033181;28;20508;-76
2021/11/14 00:57:57;;;;;;;30.13;16.73;;;;;;;6.48;45.37;94207.88;5011754;28;20026;-75
2021/11/14 01:00:26;;;;;;;33.45;17.60;;;;;;;6.29;45.42;94175.28;5020193;28;20049;-76
2021/11/14 01:02:52;;;;;;;32.97;17.42;;;;;;;6.29;45.84;94189.28;5010971;28;20045;-76
2021/11/14 01:05:20;;;;;;;35.50;18.23;;;;;;;6.45;45.73;94200.50;5003795;28;20478;-77
2021/11/14 01:07:46;;;;;;;28.10;17.15;;;;;;;6.32;45.71;94195.84;5012864;28;20041;-76
2021/11/14 01:10:15;;;;;;;32.15;17.23;;;;;;;6.38;45.73;94203.47;5013973;28;20029;-76
2021/11/14 01:12:41;;;;;;;30.92;17.23;;;;;;;6.33;45.69;94189.50;5007646;28;20041;-75
2021/11/14 01:15:08;;;;;;;30.48;17.13;;;;;;;6.24;45.75;94177.94;5010763;28;20045;-76
2021/11/14 01:17:38;;;;;;;33.75;17.60;;;;;;;5.99;45.70;94142.72;5001939;28;20057;-76
2021/11/14 01:20:07;;;;;;;29.33;18.08;;;;;;;6.17;45.78;94172.19;5013241;28;20034;-76
2021/11/14 01:22:32;;;;;;;35.97;18.70;;;;;;;6.28;45.82;94192.97;5009743;28;20041;-78
2021/11/14 01:24:58;;;;;;;35.97;16.73;;;;;;;6.23;45.98;94182.44;5012873;28;20029;-77
2021/11/14 01:27:23;;;;;;;34.35;19.17;;;;;;;6.11;46.02;94162.72;5032607;28;22564;-78
2021/11/14 01:29:48;;;;;;;34.85;19.30;;;;;;;6.30;46.45;94187.41;5016554;28;20422;-76
2021/11/14 01:32:14;;;;;;;35.70;19.88;;;;;;;6.11;46.81;94157.44;5017712;28;20045;-77
2021/11/14 01:34:47;;;;;;;35.78;20.40;;;;;;;6.24;46.75;94184.03;5024643;28;20327;-76
2021/11/14 01:37:12;;;;;;;37.95;19.42;;;;;;;6.17;46.91;94182.75;5024000;28;20029;-78
2021/11/14 01:39:38;;;;;;;36.15;19.65;;;;;;;6.21;47.10;94186.44;5012946;28;20026;-75
2021/11/14 01:42:04;;;;;;;33.50;20.05;;;;;;;6.20;47.25;94184.84;5013246;28;20423;-77
2021/11/14 01:44:29;;;;;;;33.83;18.67;;;;;;;6.13;47.00;94171.13;5010101;28;20049;-76
2021/11/14 01:46:55;;;;;;;37.28;19.98;;;;;;;6.20;47.02;94185.66;5006894;28;20049;-75
2021/11/14 01:49:20;;;;;;;34.70;21.17;;;;;;;6.12;47.19;94177.47;5012993;28;20029;-76
2021/11/14 01:51:46;;;;;;;33.80;20.80;;;;;;;6.04;47.11;94172.78;5015069;28;20040;-76
2021/11/14 01:54:11;;;;;;;34.88;18.73;;;;;;;6.00;47.24;94188.41;5013937;28;20103;-76
2021/11/14 01:56:37;;;;;;;38.35;20.55;;;;;;;6.13;46.98;94176.41;5013162;28;20038;-77
2021/11/14 01:59:03;;;;;;;34.72;19.58;;;;;;;6.00;47.21;94162.00;5019042;28;20045;-77
2021/11/14 02:01:34;;;;;;;34.65;19.10;;;;;;;6.14;47.58;94180.63;5015367;28;20463;-73
2021/11/14 02:04:03;;;;;;;32.00;19.15;;;;;;;6.22;47.54;94183.50;5018574;28;20045;-75
2021/11/14 02:06:30;;;;;;;36.63;19.92;;;;;;;6.10;47.84;94179.63;5016057;28;20041;-76
2021/11/14 02:08:56;;;;;;;32.10;19.70;;;;;;;6.05;47.96;94179.66;5015937;28;20044;-76
2021/11/14 02:11:23;;;;;;;30.27;18.58;;;;;;;6.09;47.82;94170.91;5002461;28;20808;-75
2021/11/14 02:13:50;;;;;;;32.65;17.40;;;;;;;6.11;47.44;94182.00;4970668;28;1156348;-76
2021/11/14 02:16:18;;;;;;;28.65;17.27;;;;;;;6.10;47.41;94180.41;5017177;28;20048;-78
2021/11/14 02:18:43;;;;;;;28.20;17.70;;;;;;;6.11;47.39;94176.72;5007567;28;20458;-75
2021/11/14 02:21:09;;;;;;;31.38;16.67;;;;;;;6.13;47.18;94179.06;5012919;28;20052;-77
2021/11/14 02:23:35;;;;;;;27.73;17.30;;;;;;;5.93;47.18;94148.31;5013774;28;20071;-74
2021/11/14 02:26:01;;;;;;;32.95;17.73;;;;;;;6.06;47.18;94160.13;5012205;28;20072;-76
2021/11/14 02:28:28;;;;;;;30.20;17.50;;;;;;;6.09;46.88;94162.19;5012910;28;20041;-77
2021/11/14 02:30:55;;;;;;;32.58;17.50;;;;;;;6.26;46.94;94181.13;5018994;28;20075;-77
2021/11/14 02:33:22;;;;;;;31.85;17.77;;;;;;;6.07;47.06;94156.41;5017308;28;20037;-76
2021/11/14 02:35:53;;;;;;;33.42;19.83;;;;;;;6.34;46.95;94177.88;5021075;28;20038;-73
2021/11/14 02:38:20;;;;;;;35.08;18.95;;;;;;;6.37;46.79;94179.94;5013754;28;20046;-77
2021/11/14 02:40:52;;;;;;;35.45;19.70;;;;;;;6.27;46.92;94178.19;5011189;28;20052;-74
2021/11/14 02:43:18;;;;;;;36.97;19.52;;;;;;;6.21;47.23;94173.22;5018275;28;20111;-77
2021/11/14 02:45:44;;;;;;;35.90;19.75;;;;;;;6.19;47.10;94167.44;5013743;28;20029;-77
2021/11/14 02:48:12;;;;;;;35.40;18.95;;;;;;;6.20;47.11;94169.00;5015163;28;20030;-75
2021/11/14 02:50:38;;;;;;;33.58;18.25;;;;;;;6.25;47.09;94185.59;5001190;28;20038;-77
2021/11/14 02:53:05;;;;;;;31.48;19.20;;;;;;;6.19;46.92;94189.34;5014412;28;20652;-78
2021/11/14 02:55:32;;;;;;;31.50;17.67;;;;;;;5.99;46.96;94152.50;5011413;28;20045;-77
2021/11/14 02:57:58;;;;;;;33.75;18.30;;;;;;;6.22;46.84;94182.72;5015747;28;20404;-76
2021/11/14 03:00:34;;;;;;;31.77;17.75;;;;;;;6.47;45.74;94184.34;5010657;28;20073;-77
2021/11/14 03:03:00;;;;;;;30.38;17.65;;;;;;;6.16;46.10;94163.50;5008903;28;20102;-76
2021/11/14 03:05:26;;;;;;;41.22;20.75;;;;;;;6.09;46.52;94189.38;5010704;28;20587;-76
2021/11/14 03:07:52;;;;;;;32.40;17.55;;;;;;;6.15;46.65;94183.00;5013556;28;20128;-76
2021/11/14 03:10:21;;;;;;;34.03;19.10;;;;;;;6.06;46.59;94184.66;5017341;28;20044;-75
2021/11/14 03:13:02;;;;;;;41.28;20.50;;;;;;;5.94;46.75;94163.09;5025872;28;20029;-76
2021/11/14 03:15:31;;;;;;;34.67;17.60;;;;;;;6.21;46.15;94173.22;5009641;28;20761;-75
2021/11/14 03:17:57;;;;;;;44.08;20.33;;;;;;;5.97;46.22;94165.16;5017054;28;20034;-77
2021/11/14 03:20:23;;;;;;;37.95;19.48;;;;;;;5.99;46.60;94182.34;5012677;28;20038;-78
2021/11/14 03:22:48;;;;;;;33.42;18.65;;;;;;;5.94;46.82;94177.09;5007580;28;20069;-77
2021/11/14 03:25:14;;;;;;;32.67;18.20;;;;;;;5.81;46.87;94167.16;5017303;28;20053;-76
2021/11/14 03:27:39;;;;;;;35.55;18.55;;;;;;;5.88;46.44;94161.53;5014855;28;20025;-77
2021/11/14 03:30:07;;;;;;;35.55;19.10;;;;;;;5.73;46.51;94154.53;5014718;28;21228;-77
2021/11/14 03:32:32;;;;;;;30.67;19.75;;;;;;;5.81;46.92;94187.47;5022763;28;20041;-77
2021/11/14 03:34:57;;;;;;;33.40;19.15;;;;;;;5.66;46.74;94156.69;5022918;28;20795;-76
2021/11/14 03:37:23;;;;;;;43.22;21.25;;;;;;;5.99;46.35;94190.25;5012687;28;20127;-76
2021/11/14 03:39:49;;;;;;;37.25;20.08;;;;;;;5.91;46.16;94161.81;5016958;28;20596;-77
2021/11/14 03:42:15;;;;;;;45.80;23.88;;;;;;;5.97;46.04;94176.53;5016865;28;20093;-75
2021/11/14 03:44:42;;;;;;;43.50;22.90;;;;;;;5.84;46.64;94195.63;5014984;28;20041;-74
2021/11/14 03:47:10;;;;;;;48.80;22.40;;;;;;;5.72;46.97;94192.56;5011430;28;20037;-77
2021/11/14 03:49:35;;;;;;;43.58;21.20;;;;;;;5.81;46.29;94198.81;5008284;28;20092;-77
2021/11/14 03:52:06;;;;;;;37.90;20.20;;;;;;;5.51;46.67;94180.53;5014996;28;20026;-77
2021/11/14 03:54:31;;;;;;;35.85;20.52;;;;;;;5.43;46.83;94160.75;5013300;28;20046;-77
2021/11/14 03:56:57;;;;;;;33.22;19.25;;;;;;;5.53;46.78;94196.84;5019342;28;20045;-76
2021/11/14 03:59:22;;;;;;;40.50;18.63;;;;;;;5.51;46.76;94189.22;5012638;28;20059;-77
2021/11/14 04:01:47;;;;;;;35.83;20.58;;;;;;;5.43;46.73;94189.00;5014933;28;20595;-77
2021/11/14 04:04:13;;;;;;;34.20;18.30;;;;;;;5.29;46.97;94169.53;5013774;28;20056;-74
2021/11/14 04:06:38;;;;;;;33.22;19.88;;;;;;;5.41;46.93;94193.75;5010337;28;20014;-75
2021/11/14 04:09:04;;;;;;;34.45;18.98;;;;;;;5.32;46.81;94172.44;5013792;28;20156;-77
2021/11/14 04:11:29;;;;;;;34.80;18.23;;;;;;;5.53;46.61;94196.84;5016433;28;20030;-75
2021/11/14 04:13:55;;;;;;;38.42;19.60;;;;;;;5.58;46.18;94179.16;5022432;28;20076;-78
2021/11/14 04:16:21;;;;;;;45.78;24.92;;;;;;;5.70;45.31;94178.84;5016353;28;20763;-77
2021/11/14 04:18:50;;;;;;;41.70;23.75;;;;;;;5.77;45.85;94200.44;5017665;28;20026;-74
2021/11/14 04:21:15;;;;;;;37.78;20.83;;;;;;;5.50;46.14;94173.66;5012920;28;20042;-77
2021/11/14 04:23:41;;;;;;;42.65;22.73;;;;;;;5.55;46.29;94194.75;5020440;28;20582;-75
2021/11/14 04:26:07;;;;;;;46.58;24.10;;;;;;;5.39;46.69;94177.41;5013709;28;20062;-77
2021/11/14 04:28:34;;;;;;;42.00;22.80;;;;;;;5.37;46.91;94198.78;5003390;28;20030;-78
2021/11/14 04:31:00;;;;;;;40.60;22.90;;;;;;;5.29;46.99;94190.63;5018147;28;20120;-75
2021/11/14 04:33:25;;;;;;;37.08;21.48;;;;;;;5.19;46.93;94180.91;5023098;28;20108;-75
2021/11/14 04:35:52;;;;;;;41.85;21.05;;;;;;;5.23;46.80;94191.75;5009637;28;20048;-76
2021/11/14 04:38:18;;;;;;;33.38;19.13;;;;;;;5.25;46.98;94186.97;5018355;28;20033;-77
2021/11/14 04:40:45;;;;;;;35.20;18.90;;;;;;;5.29;46.60;94195.91;5020522;28;20063;-75
2021/11/14 04:43:13;;;;;;;32.33;18.52;;;;;;;5.23;46.67;94186.47;5010735;28;20033;-76
2021/11/14 04:45:40;;;;;;;35.88;20.20;;;;;;;5.27;46.50;94192.78;5012728;28;20022;-75
2021/11/14 04:48:06;;;;;;;30.42;19.38;;;;;;;5.11;46.64;94176.22;5013282;28;20044;-76
2021/11/14 04:50:32;;;;;;;30.80;18.17;;;;;;;5.28;46.35;94194.34;5022839;28;20038;-75
2021/11/14 04:52:58;;;;;;;34.08;18.77;;;;;;;5.25;46.28;94194.88;5010451;28;20361;-77
2021/11/14 04:55:24;;;;;;;32.28;17.85;;;;;;;5.23;45.72;94173.28;5009497;28;20053;-77
2021/11/14 04:57:51;;;;;;;36.40;19.23;;;;;;;5.41;46.05;94210.38;5011051;28;20044;-77
2021/11/14 05:00:28;;;;;;;36.85;19.80;;;;;;;5.33;46.05;94187.22;5010789;28;21149;-77
2021/11/14 05:02:55;;;;;;;41.03;22.65;;;;;;;5.24;46.74;94209.91;5014043;28;20121;-76
2021/11/14 05:05:21;;;;;;;46.50;21.55;;;;;;;5.12;46.94;94206.81;5012997;28;20045;-76
2021/11/14 05:07:52;;;;;;;40.80;20.65;;;;;;;5.18;46.87;94200.47;5012507;28;20041;-76
2021/11/14 05:10:18;;;;;;;49.05;20.70;;;;;;;5.37;47.13;94214.63;5013700;28;20663;-76
2021/11/14 05:12:43;;;;;;;44.38;22.75;;;;;;;5.26;47.67;94222.84;5020220;28;20120;-76
2021/11/14 05:15:09;;;;;;;36.58;21.25;;;;;;;4.83;48.38;94204.00;5004562;28;20652;-77
2021/11/14 05:17:35;;;;;;;42.13;20.85;;;;;;;4.88;48.66;94205.81;5011038;28;20072;-76
2021/11/14 05:20:02;;;;;;;41.53;21.73;;;;;;;5.07;48.76;94225.28;5017584;28;20474;-76
2021/11/14 05:22:28;;;;;;;49.03;20.83;;;;;;;4.87;49.23;94220.84;5014628;28;20026;-78
2021/11/14 05:24:53;;;;;;;38.42;21.77;;;;;;;4.77;49.69;94241.94;5016942;28;20055;-77
2021/11/14 05:27:18;;;;;;;40.53;21.17;;;;;;;4.78;49.94;94248.78;5014885;28;20522;-74
2021/11/14 05:29:44;;;;;;;48.50;20.40;;;;;;;4.80;49.91;94214.25;5012831;28;20069;-77
2021/11/14 05:32:10;;;;;;;34.85;20.48;;;;;;;4.63;50.06;94199.53;5015861;28;20601;-77
2021/11/14 05:34:36;;;;;;;46.40;23.27;;;;;;;4.73;50.38;94225.09;5017971;28;20342;-76
2021/11/14 05:37:01;;;;;;;44.85;22.70;;;;;;;4.70;50.70;94221.13;5018348;28;20053;-77
2021/11/14 05:39:27;;;;;;;44.03;21.25;;;;;;;4.90;50.87;94244.00;5010576;28;20097;-78
2021/11/14 05:41:53;;;;;;;44.25;22.48;;;;;;;4.84;51.15;94237.19;5008359;28;20042;-77
2021/11/14 05:44:18;;;;;;;42.45;19.52;;;;;;;4.75;50.84;94183.44;5018090;28;20040;-76
2021/11/14 05:46:44;;;;;;;50.65;23.83;;;;;;;5.06;50.68;94242.94;5013439;28;20643;-77
2021/11/14 05:49:13;;;;;;;54.78;24.73;;;;;;;5.12;50.59;94259.53;5011930;28;20356;-73
2021/11/14 05:51:39;;;;;;;45.78;24.77;;;;;;;4.99;50.86;94254.81;5014645;28;20533;-78
2021/11/14 05:54:05;;;;;;;46.78;23.40;;;;;;;4.92;51.16;94263.00;5021087;28;20033;-77
2021/11/14 05:56:31;;;;;;;44.15;22.48;;;;;;;4.75;51.13;94212.41;5016367;28;20108;-76
2021/11/14 05:59:30;;;;;;;46.78;22.85;;;;;;;4.95;50.66;94241.38;5012407;28;20551;-76
2021/11/14 06:02:03;;;;;;;;;;;;;;;5.14;50.73;94268.75;5011785;28;20057;-76
2021/11/14 06:07:00;;;;;;;44.03;21.35;;;;;;;4.77;51.50;94257.75;5008576;28;20519;-76
2021/11/14 06:09:25;;;;;;;46.65;22.17;;;;;;;4.81;51.64;94271.19;5015542;28;20042;-76
2021/11/14 06:11:51;;;;;;;47.97;21.55;;;;;;;4.98;51.38;94283.03;5013727;28;20033;-74
2021/11/14 06:14:16;;;;;;;38.75;19.10;;;;;;;4.87;51.55;94276.19;5010149;28;20768;-77
2021/11/14 06:16:42;;;;;;;39.00;20.73;;;;;;;4.84;51.82;94279.38;5018619;28;20611;-76
2021/11/14 06:19:07;;;;;;;41.33;18.80;;;;;;;5.01;51.44;94277.22;5013204;28;20097;-77
2021/11/14 06:21:33;;;;;;;39.13;18.13;;;;;;;4.98;51.38;94285.66;5014318;28;20037;-76
2021/11/14 06:23:58;;;;;;;39.85;18.63;;;;;;;4.48;51.81;94233.00;5017808;28;20140;-78
2021/11/14 06:26:24;;;;;;;51.78;20.70;;;;;;;4.56;52.45;94293.06;5011637;28;20128;-73
2021/11/14 06:28:50;;;;;;;39.50;18.85;;;;;;;4.54;53.08;94285.44;5016674;28;21070;-77
2021/11/14 06:31:16;;;;;;;33.95;19.30;;;;;;;4.46;52.91;94293.84;5017643;28;20102;-76
2021/11/14 06:33:42;;;;;;;43.90;21.35;;;;;;;4.50;53.39;94288.88;5018144;28;20100;-74
2021/11/14 06:36:07;;;;;;;47.80;20.77;;;;;;;4.61;52.76;94296.50;5017214;28;20042;-77
2021/11/14 06:38:32;;;;;;;43.75;21.25;;;;;;;4.61;52.83;94290.44;5011372;28;20041;-76
2021/11/14 06:40:58;;;;;;;40.28;20.67;;;;;;;4.80;52.54;94291.47;5009076;28;20582;-77
2021/11/14 06:43:23;;;;;;;44.95;21.38;;;;;;;4.78;52.28;94290.16;5012719;28;20065;-76
2021/11/14 06:45:49;;;;;;;38.38;19.80;;;;;;;4.53;52.52;94283.84;5010491;28;20422;-75
2021/11/14 06:48:14;;;;;;;37.35;18.00;;;;;;;4.55;52.76;94291.50;5015441;28;20638;-77
2021/11/14 06:50:40;;;;;;;40.08;19.25;;;;;;;4.52;52.58;94292.81;5003703;28;20336;-76
2021/11/14 06:53:06;;;;;;;40.10;18.75;;;;;;;4.02;53.29;94261.13;5028219;28;20095;-77
2021/11/14 06:55:31;;;;;;;37.03;19.13;;;;;;;3.56;53.96;94244.44;5018626;28;20033;-77
2021/11/14 06:57:57;;;;;;;38.22;19.35;;;;;;;3.84;54.89;94297.41;5019845;28;20025;-76
2021/11/14 07:00:24;;;;;;;42.92;21.10;;;;;;;3.97;55.26;94290.84;5021187;28;20044;-78
2021/11/14 07:02:50;;;;;;;46.38;21.08;;;;;;;3.91;55.21;94289.28;5014709;28;20412;-73
2021/11/14 07:05:15;;;;;;;38.55;21.13;;;;;;;4.06;55.30;94294.56;5020518;28;20068;-78
2021/11/14 07:07:42;;;;;;;40.90;19.17;;;;;;;4.31;55.00;94300.97;5019102;28;20041;-75
2021/11/14 07:10:10;;;;;;;41.55;20.05;;;;;;;4.39;55.23;94293.34;5013188;28;20036;-77
2021/11/14 07:12:36;;;;;;;42.88;20.33;;;;;;;4.32;54.88;94292.00;5023734;28;20091;-77
2021/11/14 07:15:05;;;;;;;43.95;21.17;;;;;;;4.20;55.10;94293.03;5007513;28;20732;-77
2021/11/14 07:17:30;;;;;;;43.28;20.90;;;;;;;3.97;55.56;94285.59;5018301;28;20455;-77
2021/11/14 07:19:58;;;;;;;53.10;24.83;;;;;;;3.98;55.51;94292.44;5017754;28;20057;-77
2021/11/14 07:22:24;;;;;;;46.90;25.63;;;;;;;4.05;55.60;94290.34;5020340;28;20484;-77
2021/11/14 07:24:50;;;;;;;55.40;24.65;;;;;;;3.88;55.85;94274.00;5006229;28;20025;-78
2021/11/14 07:27:16;;;;;;;48.80;23.42;;;;;;;3.96;56.01;94267.44;5018394;28;21026;-78
2021/11/14 07:29:49;;;;;;;54.05;24.02;;;;;;;4.22;55.77;94293.53;5019471;28;20049;-76
2021/11/14 07:32:15;;;;;;;53.58;25.15;;;;;;;4.46;55.32;94296.47;5018968;28;20049;-78
2021/11/14 07:34:47;;;;;;;50.20;22.52;;;;;;;4.65;55.01;94288.84;5023007;28;20050;-75
2021/11/14 07:37:13;;;;;;;53.53;24.30;;;;;;;4.57;54.98;94278.84;5024516;28;20052;-76
2021/11/14 07:39:38;;;;;;;55.47;26.83;;;;;;;4.73;55.26;94293.59;5015573;28;20045;-77
2021/11/14 07:42:05;;;;;;;59.30;28.50;;;;;;;4.11;56.45;94281.41;5009008;28;20287;-76
2021/11/14 07:44:30;;;;;;;54.67;26.98;;;;;;;4.59;55.60;94272.28;5012605;28;20057;-75
2021/11/14 07:46:55;;;;;;;51.80;25.80;;;;;;;4.28;56.51;94300.41;5018274;28;20045;-78
2021/11/14 07:49:21;;;;;;;57.95;27.88;;;;;;;4.68;55.12;94290.97;5020680;28;20495;-75
2021/11/14 07:51:46;;;;;;;59.15;24.73;;;;;;;4.59;55.15;94288.06;5018061;28;20025;-77
2021/11/14 07:54:12;;;;;;;52.20;25.00;;;;;;;4.32;56.19;94302.53;5019606;28;20053;-78
2021/11/14 07:56:37;;;;;;;58.03;28.30;;;;;;;4.26;56.28;94299.84;5009535;28;20120;-77
2021/11/14 07:59:03;;;;;;;60.28;27.33;;;;;;;4.17;56.18;94275.09;5013492;28;20072;-77
2021/11/14 08:01:29;;;;;;;62.63;28.80;;;;;;;4.28;55.67;94255.63;5016732;28;20021;-77
2021/11/14 08:03:54;;;;;;;57.63;26.60;;;;;;;4.20;56.29;94289.59;5014276;28;20725;-77
2021/11/14 08:06:20;;;;;;;59.90;28.38;;;;;;;3.79;57.92;94297.38;5013687;28;20042;-74
2021/11/14 08:08:46;;;;;;;52.15;24.92;;;;;;;4.53;55.61;94301.50;5015538;28;20030;-75
2021/11/14 08:11:12;;;;;;;56.70;26.38;;;;;;;4.73;54.60;94282.25;5019225;28;20102;-77
2021/11/14 08:13:38;;;;;;;58.50;27.60;;;;;;;4.44;55.14;94274.09;5018463;28;20045;-77
2021/11/14 08:16:04;;;;;;;49.50;24.13;;;;;;;4.61;55.14;94293.06;5017834;28;20464;-77
2021/11/14 08:18:29;;;;;;;58.08;26.42;;;;;;;4.58;55.54;94293.59;5009596;28;20064;-76
2021/11/14 08:20:56;;;;;;;53.17;24.25;;;;;;;4.55;55.28;94280.97;5017955;28;20400;-74
2021/11/14 08:23:21;;;;;;;48.40;22.52;;;;;;;4.49;55.65;94289.91;5017568;28;20088;-77
2021/11/14 08:25:47;;;;;;;54.97;23.40;;;;;;;4.43;55.90;94294.38;5018899;28;20144;-76
2021/11/14 08:28:14;;;;;;;49.30;24.35;;;;;;;4.26;56.77;94302.50;5016810;28;20034;-77
2021/11/14 08:30:40;;;;;;;48.72;23.60;;;;;;;4.43;56.40;94290.97;5020787;28;20033;-76
2021/11/14 08:33:06;;;;;;;47.45;22.77;;;;;;;4.76;56.11;94306.22;5017600;28;20466;-76
2021/11/14 08:35:32;;;;;;;54.33;25.08;;;;;;;4.95;55.06;94295.94;5020084;28;20364;-76
2021/11/14 08:37:58;;;;;;;41.45;20.27;;;;;;;4.21;56.33;94262.19;5017945;28;20037;-76
2021/11/14 08:40:25;;;;;;;41.25;18.63;;;;;;;4.65;56.41;94287.00;5007226;28;20574;-76
2021/11/14 08:42:51;;;;;;;43.08;20.40;;;;;;;4.68;55.85;94280.44;5011867;28;20674;-77
2021/11/14 08:45:16;;;;;;;44.25;20.42;;;;;;;4.53;55.80;94289.13;5013913;28;20052;-74
2021/11/14 08:47:42;;;;;;;46.72;20.33;;;;;;;4.65;55.56;94297.53;5012555;28;20582;-77
2021/11/14 08:50:09;;;;;;;47.47;21.13;;;;;;;4.90;55.48;94298.56;5014618;28;20046;-74
2021/11/14 08:52:34;;;;;;;46.35;22.58;;;;;;;4.86;55.34;94295.69;5019404;28;20069;-74
2021/11/14 08:55:02;;;;;;;43.10;20.13;;;;;;;4.59;55.77;94308.34;5015925;28;20602;-74
2021/11/14 08:57:28;;;;;;;45.15;21.80;;;;;;;4.81;55.28;94306.22;5013444;28;20372;-75
2021/11/14 08:59:53;;;;;;;45.13;21.30;;;;;;;4.77;55.79;94304.38;5016503;28;20041;-76
2021/11/14 09:02:22;;;;;;;45.85;23.08;;;;;;;4.82;55.98;94292.00;5006490;28;20041;-76
2021/11/14 09:04:47;;;;;;;51.92;24.15;;;;;;;4.58;56.40;94285.69;5012381;28;20044;-75
2021/11/14 09:07:13;;;;;;;49.78;24.10;;;;;;;5.16;55.88;94278.25;5015700;28;20117;-78
2021/11/14 09:09:38;;;;;;;51.88;24.15;;;;;;;5.35;55.04;94292.44;5015997;28;20041;-77
2021/11/14 09:12:04;;;;;;;50.58;25.27;;;;;;;5.61;53.96;94272.81;5007747;28;20071;-76
2021/11/14 09:14:29;;;;;;;43.67;22.00;;;;;;;5.78;53.44;94270.63;5009051;28;20587;-75
2021/11/14 09:16:55;;;;;;;47.65;21.40;;;;;;;6.12;52.34;94278.63;5011888;28;20022;-77
2021/11/14 09:19:21;;;;;;;43.92;23.60;;;;;;;5.96;52.67;94277.94;5013072;28;20022;-74
2021/11/14 09:21:48;;;;;;;47.67;23.52;;;;;;;6.09;52.43;94267.81;5004639;28;20113;-75
2021/11/14 09:24:14;;;;;;;48.55;25.95;;;;;;;6.04;53.12;94276.56;5008160;28;20515;-77
2021/11/14 09:26:39;;;;;;;52.10;24.35;;;;;;;6.00;53.07;94249.94;5014364;28;20059;-76
2021/11/14 09:29:06;;;;;;;42.00;22.60;;;;;;;5.25;54.61;94258.16;5008783;28;21059;-75
2021/11/14 09:31:33;;;;;;;65.30;34.47;;;;;;;5.35;55.29;94276.59;5013452;28;20654;-76
2021/11/14 09:33:59;;;;;;;57.42;25.52;;;;;;;4.73;56.13;94283.06;5010355;28;20476;-77
2021/11/14 09:36:30;;;;;;;53.85;26.52;;;;;;;5.25;56.02;94268.72;5010179;28;20037;-77
2021/11/14 09:39:08;;;;;;;65.63;27.70;;;;;;;4.92;57.11;94270.91;5014677;28;20061;-77
2021/11/14 09:41:38;;;;;;;52.90;25.15;;;;;;;5.81;55.04;94272.75;5012840;28;20164;-76
2021/11/14 09:44:04;;;;;;;49.60;25.67;;;;;;;5.87;54.44;94253.16;5006927;28;20535;-75
2021/11/14 09:46:30;;;;;;;50.97;24.48;;;;;;;5.71;54.95;94246.38;5010703;28;20925;-77
2021/11/14 09:48:57;;;;;;;56.72;26.85;;;;;;;6.27;54.21;94264.56;5005956;28;20029;-76
2021/11/14 09:51:23;;;;;;;49.17;24.55;;;;;;;6.30;53.45;94248.19;5005869;28;20372;-75
2021/11/14 09:53:48;;;;;;;52.42;24.98;;;;;;;6.50;52.79;94255.94;5008404;28;20045;-77
2021/11/14 09:56:14;;;;;;;55.83;26.33;;;;;;;6.67;52.03;94235.19;5007280;28;20099;-76
2021/11/14 09:58:40;;;;;;;49.10;24.48;;;;;;;6.17;53.47;94259.34;5009424;28;20045;-75
2021/11/14 10:01:06;;;;;;;56.83;26.23;;;;;;;6.48;53.36;94252.78;5026877;28;20488;-76
2021/11/14 10:03:32;;;;;;;47.30;25.33;;;;;;;6.70;52.48;94253.13;5008532;28;20034;-76
2021/11/14 10:05:57;;;;;;;47.88;24.15;;;;;;;6.78;52.34;94238.53;5007019;28;20038;-76
2021/11/14 10:08:23;;;;;;;51.90;26.50;;;;;;;6.09;53.04;94233.50;5006922;28;20048;-76
2021/11/14 10:10:57;;;;;;;53.78;26.25;;;;;;;5.65;54.10;94221.06;5007875;28;20257;-76
2021/11/14 10:13:25;;;;;;;61.20;26.20;;;;;;;6.06;53.97;94239.34;5007994;28;20058;-75
2021/11/14 10:16:03;;;;;;;44.05;23.55;;;;;;;6.53;53.51;94230.81;5014783;28;20026;-76
2021/11/14 10:18:29;;;;;;;50.35;25.23;;;;;;;6.92;52.53;94214.84;5010904;28;20052;-77
2021/11/14 10:20:57;;;;;;;57.75;26.83;;;;;;;6.81;51.77;94211.53;5010731;28;20041;-74
2021/11/14 10:23:26;;;;;;;41.70;23.70;;;;;;;6.93;51.80;94213.78;5014400;28;20045;-76
2021/11/14 10:25:55;;;;;;;43.47;23.65;;;;;;;6.77;51.51;94195.44;5009598;28;20030;-75
2021/11/14 10:28:25;;;;;;;43.90;23.17;;;;;;;6.00;52.25;94128.47;5016935;28;20038;-75
2021/11/14 10:30:51;;;;;;;50.65;23.85;;;;;;;6.57;52.74;94185.06;5018314;28;20024;-75
2021/11/14 10:33:18;;;;;;;59.60;26.63;;;;;;;7.20;51.61;94198.16;5019193;28;20567;-79
2021/11/14 10:35:46;;;;;;;49.15;24.70;;;;;;;7.59;50.38;94200.59;5021407;28;20063;-79
2021/11/14 10:38:16;;;;;;;50.22;25.90;;;;;;;7.39;50.34;94193.69;5015774;28;20037;-78
2021/11/14 10:40:45;;;;;;;51.10;24.15;;;;;;;7.82;49.80;94199.81;5011412;28;20038;-77
2021/11/14 10:43:12;;;;;;;46.55;23.83;;;;;;;7.30;50.52;94182.16;5025549;28;20029;-74
2021/11/14 10:45:39;;;;;;;48.25;23.25;;;;;;;7.73;49.27;94191.69;5012431;28;20087;-77
2021/11/14 10:48:08;;;;;;;47.58;24.42;;;;;;;6.88;50.83;94174.19;5017512;28;20041;-77
2021/11/14 10:50:43;;;;;;;50.38;25.98;;;;;;;7.30;50.61;94192.75;5027778;28;20523;-76
2021/11/14 10:53:17;;;;;;;46.40;23.27;;;;;;;6.97;50.92;94181.22;5017192;28;20038;-77
2021/11/14 10:55:46;;;;;;;51.60;24.37;;;;;;;6.86;51.51;94180.53;5013828;28;20073;-77
2021/11/14 10:58:13;;;;;;;48.20;24.58;;;;;;;6.72;52.05;94176.97;5016350;28;20026;-76
2021/11/14 11:00:41;;;;;;;49.05;23.88;;;;;;;7.21;51.00;94187.28;5012540;28;20037;-76
2021/11/14 11:03:08;;;;;;;53.33;25.88;;;;;;;7.10;50.98;94171.81;5016577;28;20041;-76
2021/11/14 11:05:35;;;;;;;48.55;27.02;;;;;;;7.00;50.59;94145.47;5019366;28;20044;-77
2021/11/14 11:08:23;;;;;;;47.92;23.40;;;;;;;7.36;50.50;94170.44;5014636;28;20130;-77
2021/11/14 11:10:57;;;;;;;53.92;24.42;;;;;;;7.52;49.83;94148.03;5018440;28;20551;-79
2021/11/14 11:13:41;;;;;;;53.45;23.60;;;;;;;7.75;49.53;94150.91;5019261;28;20113;-75
2021/11/14 11:16:10;;;;;;;45.20;24.38;;;;;;;8.13;48.77;94160.41;5022084;28;20578;-77
2021/11/14 11:18:38;;;;;;;49.38;24.00;;;;;;;8.26;48.93;94162.31;5017905;28;20455;-76
2021/11/14 11:21:06;;;;;;;45.30;23.55;;;;;;;7.84;49.19;94155.28;5013710;28;21131;-75
2021/11/14 11:23:35;;;;;;;56.60;27.70;;;;;;;7.28;50.18;94158.66;5023855;28;20044;-78
2021/11/14 11:26:04;;;;;;;47.35;24.05;;;;;;;7.87;49.77;94144.13;5020863;28;20513;-76